createdAt,value
2022-08-05T00:00:18.700Z,24.61
2022-08-05T00:02:50.944Z,24.52
2022-08-05T00:06:03.226Z,24.56
2022-08-05T00:08:34.148Z,24.51
2022-08-05T00:10:56.967Z,24.53
2022-08-05T00:13:38.981Z,24.51
2022-08-05T00:16:08.759Z,24.39
2022-08-05T00:18:38.014Z,24.45
2022-08-05T00:21:06.403Z,24.44
2022-08-05T00:23:45.643Z,24.42
2022-08-05T00:26:22.310Z,24.39
2022-08-05T00:28:52.187Z,24.35
2022-08-05T00:31:53.063Z,24.39
2022-08-05T00:34:55.795Z,24.32
2022-08-05T00:37:20.097Z,24.36
2022-08-05T00:39:58.778Z,24.28
2022-08-05T00:42:34.539Z,24.32
2022-08-05T00:45:08.464Z,24.25
2022-08-05T00:47:53.337Z,24.26
2022-08-05T00:50:25.280Z,24.24
2022-08-05T00:52:55.066Z,24.18
2022-08-05T00:55:23.493Z,24.20
2022-08-05T00:58:11.389Z,24.20
2022-08-05T01:00:42.139Z,24.22
2022-08-05T01:03:22.278Z,24.21
2022-08-05T01:05:51.238Z,24.15
2022-08-05T01:08:41.838Z,24.13
2022-08-05T01:11:13.619Z,24.09
2022-08-05T01:13:59.081Z,24.11
2022-08-05T01:16:37.621Z,24.10
2022-08-05T01:19:17.613Z,24.12
2022-08-05T01:22:08.061Z,24.10
2022-08-05T01:24:57.919Z,24.10
2022-08-05T01:27:55.163Z,24.03
2022-08-05T01:30:34.534Z,24.01
2022-08-05T01:33:08.291Z,23.97
2022-08-05T01:35:51.540Z,23.92
2022-08-05T01:38:27.482Z,23.91
2022-08-05T01:40:59.753Z,23.87
2022-08-05T01:43:32.059Z,23.82
2022-08-05T01:46:07.150Z,23.82
2022-08-05T01:48:49.821Z,23.82
2022-08-05T01:51:19.556Z,23.80
2022-08-05T01:53:57.545Z,23.82
2022-08-05T01:58:11.344Z,23.79
2022-08-05T01:59:23.080Z,23.79
2022-08-05T02:01:54.847Z,23.76
2022-08-05T02:04:25.563Z,23.74
2022-08-05T02:06:53.992Z,23.67
2022-08-05T02:09:21.971Z,23.65
2022-08-05T02:11:59.963Z,23.66
2022-08-05T02:14:33.391Z,23.59
2022-08-05T02:17:07.838Z,23.51
2022-08-05T02:19:49.473Z,23.52
2022-08-05T02:22:26.381Z,23.49
2022-08-05T02:25:05.751Z,23.55
2022-08-05T02:27:57.976Z,23.54
2022-08-05T02:30:34.488Z,23.46
2022-08-05T02:33:03.847Z,23.46
2022-08-05T02:35:37.656Z,23.49
2022-08-05T02:38:19.479Z,23.49
2022-08-05T02:40:48.176Z,23.38
2022-08-05T02:43:17.835Z,23.38
2022-08-05T02:45:52.897Z,23.18
2022-08-05T02:48:29.496Z,23.15
2022-08-05T02:51:00.242Z,23.13
2022-08-05T02:53:29.112Z,23.11
2022-08-05T02:56:09.304Z,22.99
2022-08-05T02:58:37.956Z,22.90
2022-08-05T03:01:19.450Z,22.80
2022-08-05T03:04:03.146Z,22.74
2022-08-05T03:06:56.161Z,22.63
2022-08-05T03:09:27.194Z,22.61
2022-08-05T03:12:06.176Z,22.57
2022-08-05T03:14:45.790Z,22.58
2022-08-05T03:17:15.399Z,22.64
2022-08-05T03:19:45.594Z,22.66
2022-08-05T03:22:16.639Z,22.64
2022-08-05T03:24:50.656Z,22.64
2022-08-05T03:27:19.769Z,22.74
2022-08-05T03:30:07.801Z,22.62
2022-08-05T03:32:37.653Z,22.67
2022-08-05T03:35:06.784Z,22.65
2022-08-05T03:37:40.982Z,22.67
2022-08-05T03:40:15.532Z,22.61
2022-08-05T03:42:53.063Z,22.61
2022-08-05T03:45:23.355Z,22.63
2022-08-05T03:47:56.843Z,22.64
2022-08-05T03:50:26.991Z,22.67
2022-08-05T03:55:33.957Z,22.70
2022-08-05T03:56:09.949Z,22.65
2022-08-05T03:58:43.999Z,22.65
2022-08-05T04:01:14.279Z,22.48
2022-08-05T04:04:05.382Z,22.56
2022-08-05T04:06:36.395Z,22.60
2022-08-05T04:09:06.354Z,22.58
2022-08-05T04:11:50.636Z,22.57
2022-08-05T04:14:29.878Z,22.50
2022-08-05T04:17:00.651Z,22.44
2022-08-05T04:19:30.877Z,22.52
2022-08-05T04:22:09.352Z,22.53
2022-08-05T04:24:44.384Z,22.49
2022-08-05T04:27:13.101Z,22.32
2022-08-05T04:29:41.298Z,22.45
2022-08-05T04:32:09.272Z,22.48
2022-08-05T04:34:42.625Z,22.50
2022-08-05T04:37:10.982Z,22.58
2022-08-05T04:39:39.179Z,22.56
2022-08-05T04:42:09.157Z,22.36
2022-08-05T04:44:37.111Z,22.50
2022-08-05T04:47:09.409Z,22.52
2022-08-05T04:50:02.610Z,22.52
2022-08-05T04:52:28.110Z,22.50
2022-08-05T04:54:58.852Z,22.44
2022-08-05T04:57:29.229Z,22.36
2022-08-05T04:59:58.527Z,22.34
2022-08-05T05:02:37.402Z,22.28
2022-08-05T05:05:16.730Z,22.30
2022-08-05T05:07:56.663Z,22.34
2022-08-05T05:10:29.730Z,22.26
2022-08-05T05:12:57.821Z,22.17
2022-08-05T05:15:56.796Z,22.20
2022-08-05T05:18:15.131Z,22.28
2022-08-05T05:20:58.525Z,22.27
2022-08-05T05:23:26.551Z,22.32
2022-08-05T05:25:54.425Z,22.41
2022-08-05T05:28:22.238Z,22.39
2022-08-05T05:30:52.686Z,22.12
2022-08-05T05:33:23.343Z,22.36
2022-08-05T05:35:51.857Z,22.39
2022-08-05T05:38:27.287Z,22.37
2022-08-05T05:40:58.995Z,22.30
2022-08-05T05:43:54.267Z,22.42
2022-08-05T05:46:17.756Z,22.43
2022-08-05T05:48:49.177Z,22.43
2022-08-05T05:51:21.919Z,22.43
2022-08-05T05:53:57.251Z,22.51
2022-08-05T05:56:32.618Z,22.53
2022-08-05T05:59:05.374Z,22.56
2022-08-05T06:01:37.761Z,22.55
2022-08-05T06:04:08.057Z,22.46
2022-08-05T06:06:36.451Z,22.52
2022-08-05T06:09:07.487Z,22.49
2022-08-05T06:11:35.701Z,22.53
2022-08-05T06:14:07.444Z,22.51
2022-08-05T06:16:37.297Z,22.55
2022-08-05T06:19:07.577Z,22.47
2022-08-05T06:21:38.854Z,22.40
2022-08-05T06:24:12.811Z,22.44
2022-08-05T06:26:52.137Z,22.43
2022-08-05T06:29:43.194Z,22.48
2022-08-05T06:32:24.943Z,22.36
2022-08-05T06:34:56.090Z,22.36
2022-08-05T06:37:58.368Z,22.38
2022-08-05T06:40:18.161Z,22.41
2022-08-05T06:42:52.011Z,22.39
2022-08-05T06:45:44.467Z,22.39
2022-08-05T06:48:37.316Z,22.41
2022-08-05T06:50:58.387Z,22.43
2022-08-05T06:53:29.288Z,22.40
2022-08-05T06:55:59.468Z,22.37
2022-08-05T06:58:34.697Z,22.33
2022-08-05T07:01:05.189Z,22.24
2022-08-05T07:03:33.455Z,22.34
2022-08-05T07:06:05.832Z,22.32
2022-08-05T07:08:43.170Z,22.23
2022-08-05T07:11:17.502Z,22.44
2022-08-05T07:14:07.555Z,22.43
2022-08-05T07:18:09.381Z,22.42
2022-08-05T07:22:35.895Z,22.42
2022-08-05T07:25:23.258Z,22.41
2022-08-05T07:27:58.239Z,22.44
2022-08-05T07:30:32.820Z,22.42
2022-08-05T07:33:05.372Z,22.40
2022-08-05T07:36:01.695Z,22.42
2022-08-05T07:38:32.210Z,22.41
2022-08-05T07:42:06.759Z,22.34
2022-08-05T07:43:56.182Z,22.37
2022-08-05T07:46:26.170Z,22.35
2022-08-05T07:49:01.614Z,22.34
2022-08-05T07:51:36.625Z,22.30
2022-08-05T07:54:09.691Z,22.36
2022-08-05T07:57:00.265Z,22.34
2022-08-05T07:59:38.341Z,22.33
2022-08-05T08:02:15.210Z,22.33
2022-08-05T08:04:44.870Z,22.28
2022-08-05T08:07:13.225Z,22.33
2022-08-05T08:09:41.196Z,22.31
2022-08-05T08:12:20.229Z,22.30
2022-08-05T08:15:02.291Z,22.30
2022-08-05T08:17:31.190Z,22.21
2022-08-05T08:20:22.956Z,22.11
2022-08-05T08:22:52.105Z,22.05
2022-08-05T08:25:27.157Z,22.00
2022-08-05T08:28:18.027Z,21.94
2022-08-05T08:30:49.819Z,21.95
2022-08-05T08:33:19.205Z,21.92
2022-08-05T08:35:53.950Z,21.96
2022-08-05T08:38:35.087Z,21.95
2022-08-05T08:41:08.321Z,21.99
2022-08-05T08:45:16.389Z,21.94
2022-08-05T08:46:29.199Z,21.95
2022-08-05T08:49:06.121Z,21.98
2022-08-05T08:52:02.955Z,21.70
2022-08-05T08:54:33.705Z,21.87
2022-08-05T08:57:11.290Z,21.92
2022-08-05T08:59:41.911Z,21.92
2022-08-05T09:02:19.007Z,21.88
2022-08-05T09:05:16.994Z,21.92
2022-08-05T09:07:39.756Z,21.92
2022-08-05T09:10:27.827Z,21.86
2022-08-05T09:13:04.871Z,21.78
2022-08-05T09:15:36.925Z,21.79
2022-08-05T09:18:09.419Z,21.71
2022-08-05T09:20:38.288Z,21.76
2022-08-05T09:23:18.766Z,21.72
2022-08-05T09:26:03.017Z,21.70
2022-08-05T09:28:34.519Z,21.72
2022-08-05T09:31:22.386Z,21.85
2022-08-05T09:33:56.580Z,21.76
2022-08-05T09:36:27.744Z,21.82
2022-08-05T09:39:03.730Z,21.82
2022-08-05T09:42:00.483Z,21.79
2022-08-05T09:44:39.906Z,21.79
2022-08-05T09:47:15.793Z,21.73
2022-08-05T09:50:01.535Z,21.82
2022-08-05T09:52:32.365Z,21.96
2022-08-05T09:55:55.053Z,21.95
2022-08-05T09:57:54.676Z,21.99
2022-08-05T10:00:26.786Z,21.93
2022-08-05T10:02:58.608Z,21.84
2022-08-05T10:05:32.978Z,21.86
2022-08-05T10:08:36.552Z,21.84
2022-08-05T10:10:54.661Z,21.91
2022-08-05T10:13:45.817Z,21.89
2022-08-05T10:16:37.600Z,21.92
2022-08-05T10:19:10.187Z,21.92
2022-08-05T10:21:41.295Z,21.94
2022-08-05T10:24:13.244Z,21.96
2022-08-05T10:26:51.858Z,21.97
2022-08-05T10:29:23.965Z,21.95
2022-08-05T10:32:53.219Z,21.94
2022-08-05T10:35:00.873Z,21.94
2022-08-05T10:37:45.009Z,22.09
2022-08-05T10:40:28.312Z,22.16
2022-08-05T10:43:12.413Z,22.27
2022-08-05T10:45:42.332Z,22.43
2022-08-05T10:48:35.063Z,22.44
2022-08-05T10:51:21.724Z,22.41
2022-08-05T10:53:58.169Z,22.56
2022-08-05T10:56:28.673Z,22.61
2022-08-05T10:59:11.458Z,22.62
2022-08-05T11:01:55.643Z,22.53
2022-08-05T11:04:34.359Z,22.48
2022-08-05T11:07:06.965Z,22.54
2022-08-05T11:09:46.058Z,22.79
2022-08-05T11:12:50.882Z,23.02
2022-08-05T11:15:44.025Z,23.08
2022-08-05T11:18:30.074Z,23.28
2022-08-05T11:21:00.091Z,23.76
2022-08-05T11:24:02.722Z,23.74
2022-08-05T11:26:28.031Z,23.56
2022-08-05T11:29:06.659Z,23.70
2022-08-05T11:31:57.537Z,23.95
2022-08-05T11:34:39.900Z,24.10
2022-08-05T11:38:28.239Z,24.32
2022-08-05T11:41:15.457Z,24.75
2022-08-05T11:44:04.950Z,25.07
2022-08-05T11:46:37.898Z,25.53
2022-08-05T11:49:25.695Z,26.00
2022-08-05T11:51:54.327Z,26.23
2022-08-05T11:54:33.094Z,26.48
2022-08-05T11:57:08.661Z,26.79
2022-08-05T11:59:54.068Z,27.16
2022-08-05T12:02:31.482Z,27.44
2022-08-05T12:05:07.385Z,27.78
2022-08-05T12:08:08.670Z,28.00
2022-08-05T12:10:45.612Z,27.92
2022-08-05T12:13:27.809Z,27.59
2022-08-05T12:16:14.616Z,27.60
2022-08-05T12:18:49.578Z,27.48
2022-08-05T12:21:24.226Z,27.01
2022-08-05T12:24:11.325Z,27.53
2022-08-05T12:26:44.053Z,27.74
2022-08-05T12:29:16.437Z,26.93
2022-08-05T12:31:53.752Z,26.57
2022-08-05T12:34:25.952Z,26.21
2022-08-05T12:36:54.437Z,25.96
2022-08-05T12:39:28.287Z,25.84
2022-08-05T12:42:09.909Z,25.59
2022-08-05T12:44:48.010Z,25.63
2022-08-05T12:47:28.623Z,25.86
2022-08-05T12:50:02.153Z,26.32
2022-08-05T12:52:38.768Z,26.20
2022-08-05T12:55:22.174Z,26.47
2022-08-05T12:58:49.514Z,27.04
2022-08-05T13:02:00.182Z,26.80
2022-08-05T13:03:41.553Z,26.53
2022-08-05T13:06:17.243Z,27.35
2022-08-05T13:08:50.741Z,27.69
2022-08-05T13:11:47.073Z,27.11
2022-08-05T13:14:14.750Z,26.77
2022-08-05T13:16:50.799Z,26.80
2022-08-05T13:19:22.334Z,27.03
2022-08-05T13:21:52.510Z,26.88
2022-08-05T13:24:36.206Z,26.55
2022-08-05T13:27:22.912Z,26.62
2022-08-05T13:30:36.153Z,27.04
2022-08-05T13:32:50.600Z,27.28
2022-08-05T13:35:22.100Z,27.45
2022-08-05T13:38:04.908Z,27.46
2022-08-05T13:40:48.037Z,27.24
2022-08-05T13:43:21.822Z,27.21
2022-08-05T13:45:50.701Z,26.97
2022-08-05T13:48:57.850Z,26.88
2022-08-05T13:51:09.605Z,26.80
2022-08-05T13:53:47.969Z,26.90
2022-08-05T13:56:18.777Z,26.76
2022-08-05T13:58:52.727Z,26.56
2022-08-05T14:01:25.827Z,26.35
2022-08-05T14:04:21.915Z,26.15
2022-08-05T14:09:29.867Z,25.87
2022-08-05T14:12:03.976Z,25.74
2022-08-05T14:14:33.754Z,25.61
2022-08-05T14:17:01.873Z,25.54
2022-08-05T14:19:30.615Z,25.47
2022-08-05T14:22:18.455Z,25.29
2022-08-05T14:24:48.587Z,24.93
2022-08-05T14:27:18.780Z,24.99
2022-08-05T14:29:51.287Z,25.01
2022-08-05T14:32:27.074Z,24.96
2022-08-05T14:34:56.756Z,25.01
2022-08-05T14:37:45.425Z,25.07
2022-08-05T14:40:16.930Z,25.19
2022-08-05T14:42:45.027Z,25.40
2022-08-05T14:45:13.315Z,25.76
2022-08-05T14:48:03.162Z,25.85
2022-08-05T14:50:30.901Z,26.18
2022-08-05T14:52:59.568Z,26.07
2022-08-05T14:55:39.046Z,25.92
2022-08-05T14:58:12.125Z,25.85
2022-08-05T15:00:59.822Z,25.65
2022-08-05T15:03:34.042Z,25.70
2022-08-05T15:06:14.838Z,25.69
2022-08-05T15:09:01.295Z,25.58
2022-08-05T15:11:52.363Z,25.59
2022-08-05T15:14:34.595Z,25.51
2022-08-05T15:17:44.563Z,25.62
2022-08-05T15:19:57.920Z,25.56
2022-08-05T15:22:27.190Z,25.54
2022-08-05T15:24:55.578Z,25.36
2022-08-05T15:27:25.872Z,25.46
2022-08-05T15:29:54.289Z,25.35
2022-08-05T15:32:27.385Z,25.36
2022-08-05T15:34:57.085Z,25.34
2022-08-05T15:38:32.842Z,25.35
2022-08-05T15:40:59.683Z,25.25
2022-08-05T15:43:12.816Z,25.17
2022-08-05T15:45:47.822Z,25.24
2022-08-05T15:48:28.718Z,25.37
2022-08-05T15:50:56.638Z,25.39
2022-08-05T15:53:26.545Z,25.46
2022-08-05T15:56:09.141Z,25.45
2022-08-05T15:58:43.468Z,25.36
2022-08-05T16:01:16.372Z,25.37
2022-08-05T16:03:48.352Z,25.31
2022-08-05T16:06:19.864Z,25.29
2022-08-05T16:08:51.123Z,25.09
2022-08-05T16:11:40.076Z,25.14
2022-08-05T16:14:17.195Z,25.08
2022-08-05T16:16:46.300Z,25.01
2022-08-05T16:19:25.669Z,24.95
2022-08-05T16:22:03.382Z,24.89
2022-08-05T16:24:39.827Z,25.00
2022-08-05T16:27:16.176Z,24.99
2022-08-05T16:29:50.389Z,24.98
2022-08-05T16:32:28.453Z,25.02
2022-08-05T16:34:57.745Z,25.01
2022-08-05T16:38:03.341Z,24.93
2022-08-05T16:40:26.539Z,24.95
2022-08-05T16:42:57.348Z,24.92
2022-08-05T16:46:06.026Z,24.90
2022-08-05T16:48:25.124Z,24.93
2022-08-05T16:50:54.353Z,24.78
2022-08-05T16:53:32.397Z,24.85
2022-08-05T16:56:10.615Z,24.75
2022-08-05T16:58:40.753Z,24.78
2022-08-05T17:01:10.800Z,24.72
2022-08-05T17:03:38.892Z,24.67
2022-08-05T17:06:07.447Z,24.69
2022-08-05T17:08:52.125Z,24.64
2022-08-05T17:11:23.965Z,24.49
2022-08-05T17:14:00.293Z,24.63
2022-08-05T17:16:35.863Z,24.62
2022-08-05T17:19:07.402Z,24.61
2022-08-05T17:21:39.396Z,23.93
2022-08-05T17:24:18.438Z,24.37
2022-08-05T17:26:57.440Z,24.58
2022-08-05T17:29:33.083Z,24.51
2022-08-05T17:32:11.243Z,24.56
2022-08-05T17:34:44.402Z,24.56
2022-08-05T17:37:40.864Z,24.45
2022-08-05T17:40:02.139Z,24.64
2022-08-05T17:42:32.968Z,24.66
2022-08-05T17:45:10.079Z,24.62
2022-08-05T17:47:54.107Z,24.62
2022-08-05T17:50:28.190Z,24.62
2022-08-05T17:52:59.973Z,24.60
2022-08-05T17:55:34.333Z,24.62
2022-08-05T17:58:09.439Z,24.56
2022-08-05T18:00:44.407Z,24.52
2022-08-05T18:06:11.179Z,24.47
2022-08-05T18:08:44.142Z,24.45
2022-08-05T18:11:23.934Z,24.40
2022-08-05T18:14:00.676Z,24.35
2022-08-05T18:16:31.621Z,24.36
2022-08-05T18:19:00.808Z,24.29
2022-08-05T18:22:09.114Z,24.29
2022-08-05T18:24:16.340Z,24.22
2022-08-05T18:26:44.163Z,24.19
2022-08-05T18:29:12.029Z,24.16
2022-08-05T18:31:44.650Z,24.13
2022-08-05T18:34:14.848Z,24.08
2022-08-05T18:36:43.674Z,24.04
2022-08-05T18:39:42.264Z,23.98
2022-08-05T18:42:03.661Z,23.95
2022-08-05T18:44:35.353Z,23.91
2022-08-05T18:47:16.955Z,23.84
2022-08-05T18:50:03.407Z,23.80
2022-08-05T18:52:41.604Z,23.77
2022-08-05T18:55:21.448Z,23.76
2022-08-05T18:57:52.680Z,23.73
2022-08-05T19:00:29.044Z,23.72
2022-08-05T19:03:03.366Z,23.66
2022-08-05T19:06:11.128Z,23.49
2022-08-05T19:08:22.409Z,23.55
2022-08-05T19:10:59.623Z,23.48
2022-08-05T19:13:36.126Z,23.47
2022-08-05T19:16:25.366Z,23.45
2022-08-05T19:18:56.702Z,23.36
2022-08-05T19:21:27.533Z,23.37
2022-08-05T19:24:06.902Z,23.31
2022-08-05T19:26:54.847Z,23.19
2022-08-05T19:29:36.126Z,23.21
2022-08-05T19:32:08.559Z,23.21
2022-08-05T19:34:39.676Z,23.18
2022-08-05T19:37:10.498Z,23.11
2022-08-05T19:39:45.888Z,22.96
2022-08-05T19:42:35.803Z,23.02
2022-08-05T19:45:05.858Z,22.94
2022-08-05T19:47:34.688Z,22.88
2022-08-05T19:50:07.853Z,22.89
2022-08-05T19:52:41.707Z,22.71
2022-08-05T19:56:13.796Z,22.68
2022-08-05T19:58:07.104Z,22.80
2022-08-05T20:00:46.896Z,22.77
2022-08-05T20:03:15.219Z,22.74
2022-08-05T20:05:51.692Z,22.62
2022-08-05T20:08:24.227Z,22.66
2022-08-05T20:10:53.411Z,22.66
2022-08-05T20:13:55.060Z,22.60
2022-08-05T20:16:10.879Z,22.58
2022-08-05T20:18:38.715Z,22.60
2022-08-05T20:21:07.824Z,22.53
2022-08-05T20:23:51.301Z,22.51
2022-08-05T20:26:22.039Z,22.30
2022-08-05T20:28:55.569Z,22.33
2022-08-05T20:31:28.762Z,22.36
2022-08-05T20:34:05.738Z,22.14
2022-08-05T20:36:36.380Z,22.30
2022-08-05T20:39:10.371Z,22.28
2022-08-05T20:41:43.870Z,22.29
2022-08-05T20:44:19.223Z,22.25
2022-08-05T20:46:57.779Z,22.21
2022-08-05T20:49:26.174Z,22.17
2022-08-05T20:51:54.360Z,22.14
2022-08-05T20:54:25.257Z,22.13
2022-08-05T20:56:53.160Z,22.04
2022-08-05T20:59:27.055Z,22.08
2022-08-05T21:02:09.889Z,22.04
2022-08-05T21:04:38.386Z,22.07
2022-08-05T21:07:08.473Z,21.94
2022-08-05T21:09:38.300Z,21.97
2022-08-05T21:12:21.672Z,21.94
2022-08-05T21:14:53.993Z,21.93
2022-08-05T21:17:22.748Z,21.91
2022-08-05T21:19:52.027Z,21.91
2022-08-05T21:22:23.577Z,21.43
2022-08-05T21:24:54.303Z,21.75
2022-08-05T21:27:24.733Z,21.67
2022-08-05T21:29:55.816Z,21.65
2022-08-05T21:32:24.658Z,21.58
2022-08-05T21:35:09.031Z,21.53
2022-08-05T21:37:47.313Z,21.47
2022-08-05T21:40:23.296Z,21.37
2022-08-05T21:42:53.511Z,21.34
2022-08-05T21:45:24.728Z,21.31
2022-08-05T21:47:57.259Z,21.27
2022-08-05T21:50:26.286Z,21.18
2022-08-05T21:52:58.896Z,21.16
2022-08-05T21:56:01.720Z,21.08
2022-08-05T21:58:31.965Z,21.02
2022-08-05T22:01:00.779Z,21.04
2022-08-05T22:03:52.738Z,20.94
2022-08-05T22:06:22.833Z,20.94
2022-08-05T22:08:52.144Z,20.96
2022-08-05T22:11:34.462Z,20.65
2022-08-05T22:14:19.471Z,20.64
2022-08-05T22:16:56.048Z,20.83
2022-08-05T22:20:02.747Z,20.87
2022-08-05T22:22:15.425Z,20.87
2022-08-05T22:25:01.662Z,20.91
2022-08-05T22:28:09.782Z,20.86
2022-08-05T22:30:35.408Z,20.87
2022-08-05T22:33:03.833Z,20.95
2022-08-05T22:35:47.743Z,21.00
2022-08-05T22:38:16.722Z,21.04
2022-08-05T22:40:49.998Z,20.96
2022-08-05T22:43:36.944Z,20.96
2022-08-05T22:46:13.181Z,20.98
2022-08-05T22:48:49.025Z,21.01
2022-08-05T22:51:22.647Z,21.00
2022-08-05T22:53:51.994Z,21.02
2022-08-05T22:56:30.768Z,20.98
2022-08-05T22:59:03.219Z,21.01
2022-08-05T23:02:04.630Z,20.99
2022-08-05T23:04:34.348Z,20.86
2022-08-05T23:07:02.164Z,20.87
2022-08-05T23:09:57.252Z,20.67
2022-08-05T23:12:18.446Z,20.88
2022-08-05T23:14:53.136Z,20.91
2022-08-05T23:17:35.037Z,20.90
2022-08-05T23:20:10.425Z,20.87
2022-08-05T23:22:47.686Z,20.86
2022-08-05T23:25:54.854Z,20.84
2022-08-05T23:28:07.120Z,20.80
2022-08-05T23:30:39.820Z,20.82
2022-08-05T23:33:15.932Z,20.79
2022-08-05T23:35:50.862Z,20.73
2022-08-05T23:38:19.136Z,20.69
2022-08-05T23:40:49.852Z,20.68
2022-08-05T23:43:25.685Z,20.62
2022-08-05T23:46:19.881Z,20.61
2022-08-05T23:49:00.942Z,20.59
2022-08-05T23:51:54.013Z,20.45
2022-08-05T23:54:25.878Z,20.51
2022-08-05T23:56:56.005Z,20.48
2022-08-05T23:59:37.349Z,20.48
